Time;durP1;ratioP1;P1;durP2;ratioP2;P2;SDS_P1;SDS_P2;PMS_P1;PMS_P2;Temp;Humidity;BMP_temperature;BMP_pressure;BME280_temperature;BME280_humidity;BME280_pressure;Samples;Min_cycle;Max_cycle;Signal;HPM_P1;HPM_P2
2022/07/04 16:44:19;;;;;;;3.50;3.20;;;;;;;28.00;45.80;94465.47;2511819;54;50726;-90
2022/07/04 16:57:25;;;;;;;3.75;3.42;;;;;;;27.54;47.77;94488.22;2616485;54;20247;-88
2022/07/04 16:59:56;;;;;;;3.75;3.50;;;;;;;26.61;47.75;94383.88;2627713;54;20153;-89
2022/07/04 17:12:58;;;;;;;3.95;3.20;;;;;;;26.13;48.74;94344.03;2616032;46;20231;-87
2022/07/04 17:15:30;;;;;;;3.70;3.50;;;;;;;26.31;47.97;94379.78;2617150;54;20251;-88
2022/07/04 17:17:58;;;;;;;3.95;3.65;;;;;;;26.88;48.11;94449.03;2621455;39;20574;-80
2022/07/04 17:20:27;;;;;;;3.22;2.97;;;;;;;26.00;48.21;94351.00;2614678;47;20171;-85
2022/07/04 17:22:56;;;;;;;3.50;3.25;;;;;;;25.41;48.10;94280.31;2614961;47;20176;-89
2022/07/04 17:25:26;;;;;;;3.38;3.17;;;;;;;25.60;48.50;94310.16;2626133;39;20580;-90
2022/07/04 17:28:13;;;;;;;3.00;2.80;;;;;;;25.86;47.76;94366.66;2623642;46;20159;-89
2022/07/04 17:30:45;;;;;;;3.65;3.15;;;;;;;26.93;48.06;94499.03;2621196;54;20141;-89
2022/07/04 17:33:17;;;;;;;3.10;2.90;;;;;;;25.54;47.78;94313.25;2627400;47;20735;-87
2022/07/04 17:35:50;;;;;;;3.33;3.03;;;;;;;25.38;48.73;94320.25;2620043;54;20159;-87
2022/07/04 17:38:19;;;;;;;2.95;2.75;;;;;;;25.42;48.50;94322.31;2621294;54;20157;-87
2022/07/04 17:41:40;;;;;;;3.65;3.45;;;;;;;24.86;48.49;94241.34;2620736;47;20149;-88
2022/07/04 17:43:38;;;;;;;3.35;3.15;;;;;;;26.13;48.63;94445.59;2635120;31;20666;-89
2022/07/04 17:46:10;;;;;;;3.35;3.15;;;;;;;25.00;49.09;94290.22;2620866;54;21211;-90
2022/07/04 17:48:39;;;;;;;3.03;2.83;;;;;;;26.01;48.25;94439.47;2623661;47;20216;-87
2022/07/04 17:51:08;;;;;;;3.30;2.97;;;;;;;26.02;48.24;94420.56;2619728;39;20558;-87
2022/07/04 17:53:37;;;;;;;3.63;3.33;;;;;;;26.38;48.23;94491.31;2623685;39;20530;-88
2022/07/04 17:56:11;;;;;;;4.88;3.05;;;;;;;25.78;48.46;94405.34;2622775;54;20157;-88
2022/07/04 17:58:47;;;;;;;3.03;2.92;;;;;;;25.49;48.20;94382.25;2624272;54;20156;-88
2022/07/04 18:01:19;;;;;;;3.67;3.47;;;;;;;24.41;48.46;94239.00;2626132;54;20158;-88
2022/07/04 18:03:48;;;;;;;3.78;3.53;;;;;;;25.35;47.99;94379.75;2627063;54;20204;-88
2022/07/04 18:06:17;;;;;;;3.58;3.20;;;;;;;25.66;48.34;94428.91;2627995;47;20187;-89
2022/07/04 18:08:46;;;;;;;2.95;2.75;;;;;;;25.58;48.85;94413.88;2626503;54;20291;-87
2022/07/04 18:11:25;;;;;;;;;;;;;;;;;;;;;
2022/07/04 18:13:55;;;;;;;3.22;2.95;;;;;;;25.76;50.37;94506.91;2625794;54;20152;-88
2022/07/04 18:16:31;;;;;;;3.72;3.42;;;;;;;25.34;50.53;94453.69;2628402;54;20217;-90
2022/07/04 18:19:00;;;;;;;4.30;3.90;;;;;;;25.56;50.73;94503.88;2628270;47;20479;-87
2022/07/04 18:21:29;;;;;;;4.47;3.40;;;;;;;24.93;50.11;94392.50;2625113;54;20188;-87
2022/07/04 18:23:58;;;;;;;3.60;3.35;;;;;;;24.80;50.06;94404.41;2625560;39;20527;-87
2022/07/04 18:26:27;;;;;;;3.72;3.42;;;;;;;25.50;49.98;94511.25;2624935;54;20233;-86
2022/07/04 18:36:31;;;;;;;3.75;3.45;;;;;;;23.67;48.73;94266.16;2617078;39;21336;-91
2022/07/04 18:39:01;;;;;;;3.78;3.25;;;;;;;24.95;47.43;94433.75;2626833;46;20237;-90
2022/07/04 18:44:14;;;;;;;3.60;3.30;;;;;;;24.26;48.25;94342.13;2627803;47;20141;-86
2022/07/04 18:46:43;;;;;;;4.50;3.25;;;;;;;24.64;48.27;94410.63;2629338;47;20145;-88
2022/07/04 18:49:12;;;;;;;2.65;2.55;;;;;;;24.47;48.57;94383.53;2624994;54;20201;-87
2022/07/04 18:51:44;;;;;;;3.58;3.28;;;;;;;24.31;48.68;94373.09;2627066;54;20216;-90
2022/07/04 18:54:13;;;;;;;2.88;2.70;;;;;;;24.35;48.04;94384.56;2616993;54;20219;-88
2022/07/04 18:56:44;;;;;;;3.13;2.83;;;;;;;25.04;47.82;94475.50;2627769;46;20153;-90
2022/07/04 18:59:18;;;;;;;3.22;3.03;;;;;;;25.54;47.81;94533.63;2626240;47;20273;-91
2022/07/04 19:07:08;;;;;;;2.80;2.55;;;;;;;25.54;47.81;94538.72;2598687;54;20884;-88
2022/07/04 19:17:39;;;;;;;2.60;2.30;;;;;;;23.67;49.50;94398.44;2609227;39;20384;31
2022/07/04 19:20:09;;;;;;;2.95;2.70;;;;;;;23.60;49.67;94403.66;2608973;46;20220;-86
2022/07/04 19:33:16;;;;;;;2.97;2.78;;;;;;;23.77;51.25;94464.03;2612651;54;20203;-83
2022/07/04 19:35:45;;;;;;;3.67;2.88;;;;;;;24.25;50.15;94517.22;2613079;47;20769;-82
2022/07/04 19:38:14;;;;;;;2.88;2.70;;;;;;;22.89;50.19;94329.97;2614762;46;20184;-82
2022/07/04 19:40:43;;;;;;;2.90;2.70;;;;;;;24.36;49.98;94532.88;2615043;47;20200;-83
2022/07/04 19:43:12;;;;;;;3.33;3.13;;;;;;;23.84;48.09;94442.88;2614153;47;20172;-82
2022/07/04 19:45:41;;;;;;;2.58;2.45;;;;;;;24.43;47.83;94505.97;2614615;47;20180;-82
2022/07/04 19:48:10;;;;;;;2.72;2.63;;;;;;;23.72;47.72;94406.28;2613499;46;20168;-82
2022/07/04 19:50:44;;;;;;;2.55;2.45;;;;;;;24.55;47.49;94504.94;2616027;47;20164;-84
2022/07/04 19:53:14;;;;;;;7.40;2.75;;;;;;;23.83;48.22;94437.84;2616969;47;20148;-83
2022/07/04 19:55:43;;;;;;;2.58;2.47;;;;;;;24.35;47.90;94511.19;2615984;47;20170;-84
2022/07/04 19:58:12;;;;;;;4.20;1.95;;;;;;;24.31;48.58;94508.41;2616509;47;20241;-83
2022/07/04 20:00:42;;;;;;;2.75;2.55;;;;;;;24.14;48.68;94498.66;2616925;54;20160;-86
2022/07/04 20:03:11;;;;;;;2.55;2.45;;;;;;;24.13;48.05;94500.09;2617899;47;20246;-83
2022/07/04 20:05:43;;;;;;;4.05;2.20;;;;;;;24.36;48.41;94550.97;2617709;47;20244;-83
2022/07/04 20:08:13;;;;;;;2.28;2.15;;;;;;;24.27;48.58;94532.38;2617751;54;20141;-83
2022/07/04 20:10:42;;;;;;;2.92;2.72;;;;;;;24.39;49.10;94554.53;2617721;54;20209;-83
2022/07/04 20:13:11;;;;;;;2.58;2.47;;;;;;;23.87;48.91;94495.59;2616143;39;20621;-83
2022/07/04 20:15:40;;;;;;;2.83;2.63;;;;;;;24.00;49.97;94549.56;2616379;54;20168;-81
2022/07/04 20:18:11;;;;;;;2.88;2.50;;;;;;;23.96;50.31;94551.81;2615171;54;20200;-82
2022/07/04 20:20:43;;;;;;;3.38;3.08;;;;;;;24.13;52.30;94543.50;2616524;54;20248;-82
2022/07/04 20:23:11;;;;;;;4.03;2.90;;;;;;;24.65;50.37;94559.72;2616781;54;20157;-82
2022/07/04 20:25:40;;;;;;;3.22;2.92;;;;;;;25.18;49.56;94567.16;2617673;54;20164;-83
2022/07/04 20:28:11;;;;;;;3.42;3.13;;;;;;;25.46;49.45;94575.13;2612991;54;20169;-82
2022/07/04 20:30:40;;;;;;;2.45;2.35;;;;;;;24.67;48.07;94521.31;2617486;54;20244;-81
2022/07/04 20:33:09;;;;;;;3.38;3.08;;;;;;;24.19;49.62;94509.34;2616430;39;20934;-82
2022/07/04 20:35:38;;;;;;;2.58;2.42;;;;;;;24.20;50.02;94565.75;2616512;47;20169;-82
2022/07/04 20:38:09;;;;;;;2.60;2.47;;;;;;;23.34;50.31;94508.22;2616020;47;20256;-81
2022/07/04 20:40:38;;;;;;;43.53;19.98;;;;;;;23.35;51.42;94544.31;2617714;47;20169;-80
2022/07/04 20:43:07;;;;;;;3.10;2.80;;;;;;;23.32;51.57;94534.25;2617507;54;20176;-83
2022/07/04 20:45:36;;;;;;;2.33;2.22;;;;;;;23.37;52.47;94573.88;2617618;47;20153;-82
2022/07/04 20:48:08;;;;;;;2.45;2.35;;;;;;;23.19;52.10;94553.97;2617248;54;20190;-80
2022/07/04 20:50:37;;;;;;;4.20;2.70;;;;;;;23.01;53.21;94571.63;2617549;54;20181;-81
2022/07/04 20:53:09;;;;;;;3.03;2.85;;;;;;;22.66;54.15;94560.59;2618107;54;20145;-80
2022/07/04 20:55:38;;;;;;;3.63;2.40;;;;;;;22.62;54.32;94557.06;2618455;54;20253;-80
2022/07/04 20:58:08;;;;;;;2.53;2.25;;;;;;;22.76;54.36;94565.53;2617409;54;20165;-80
2022/07/04 21:00:37;;;;;;;3.00;2.80;;;;;;;22.68;54.82;94525.22;2617779;47;20160;-79
2022/07/04 21:03:06;;;;;;;2.25;2.08;;;;;;;23.57;55.47;94577.88;2617497;54;20195;-79
2022/07/04 21:05:35;;;;;;;3.10;2.90;;;;;;;23.87;53.93;94568.63;2616801;46;20682;-79
2022/07/04 21:08:04;;;;;;;3.85;3.50;;;;;;;24.03;51.90;94556.00;2617823;54;20168;-79
2022/07/04 21:10:35;;;;;;;4.80;2.70;;;;;;;24.09;50.61;94579.03;2617580;47;20605;-79
2022/07/04 21:13:04;;;;;;;2.65;2.55;;;;;;;24.43;52.38;94575.44;2617030;39;20600;-79
2022/07/04 21:15:33;;;;;;;3.10;2.72;;;;;;;24.24;50.61;94556.31;2617357;47;20220;-80
2022/07/04 21:18:01;;;;;;;2.65;2.53;;;;;;;24.57;49.98;94591.78;2617015;54;20165;-80
2022/07/04 21:20:30;;;;;;;2.55;2.35;;;;;;;24.27;50.98;94592.44;2616629;54;20149;-80
2022/07/04 21:22:59;;;;;;;7.15;2.90;;;;;;;23.72;50.18;94516.16;2617363;46;20157;-82
2022/07/04 21:25:28;;;;;;;2.50;2.30;;;;;;;24.32;52.24;94570.63;2617871;54;20153;-81
2022/07/04 21:27:59;;;;;;;6.82;2.42;;;;;;;23.86;50.87;94555.63;2618532;54;20164;-80
2022/07/04 21:30:28;;;;;;;2.28;2.08;;;;;;;24.14;53.53;94585.44;2618328;54;20184;-80
2022/07/04 21:32:57;;;;;;;2.75;2.40;;;;;;;24.30;53.88;94603.22;2617565;47;20184;-79
2022/07/04 21:35:26;;;;;;;3.08;2.50;;;;;;;24.18;50.36;94580.28;2618314;47;20164;-80
2022/07/04 21:37:55;;;;;;;1.83;1.73;;;;;;;24.40;53.17;94599.38;2617780;47;20253;-80
2022/07/04 21:40:24;;;;;;;4.63;2.72;;;;;;;24.17;49.76;94586.84;2618552;54;20654;-80
2022/07/04 21:42:53;;;;;;;2.90;2.70;;;;;;;23.72;49.35;94587.72;2618150;54;20160;-80
2022/07/04 21:45:24;;;;;;;2.30;2.20;;;;;;;23.67;48.69;94606.59;2618333;47;20173;-79
2022/07/04 21:47:54;;;;;;;2.70;2.50;;;;;;;23.45;51.31;94580.97;2617585;47;20193;-79
2022/07/04 21:50:23;;;;;;;3.22;3.03;;;;;;;23.63;52.04;94598.75;2618440;47;20168;-82
2022/07/04 21:52:52;;;;;;;3.85;3.55;;;;;;;23.40;51.78;94604.16;2618945;46;20247;-82
2022/07/04 21:55:21;;;;;;;4.22;2.92;;;;;;;22.28;49.61;94552.50;2618787;46;20191;-82
2022/07/04 21:57:49;;;;;;;3.38;3.08;;;;;;;21.86;51.44;94551.59;2617885;46;20167;-82
2022/07/04 22:00:18;;;;;;;3.20;2.97;;;;;;;22.06;51.83;94593.91;2617799;47;20160;-80
2022/07/04 22:02:50;;;;;;;2.35;2.15;;;;;;;21.69;51.97;94576.31;2617015;54;20153;-81
2022/07/04 22:05:18;;;;;;;3.45;2.08;;;;;;;21.65;51.95;94582.09;2618626;54;20176;-81
2022/07/04 22:07:47;;;;;;;2.20;2.10;;;;;;;21.21;50.32;94532.16;2617802;54;20137;-82
2022/07/04 22:10:16;;;;;;;2.35;2.25;;;;;;;21.62;50.43;94578.53;2617866;54;20153;-82
2022/07/04 22:12:45;;;;;;;1.92;1.83;;;;;;;21.94;49.21;94596.91;2617661;54;20173;-82
2022/07/04 22:15:13;;;;;;;1.60;1.50;;;;;;;21.99;47.72;94601.22;2617827;47;20288;-80
2022/07/04 22:17:42;;;;;;;2.13;2.03;;;;;;;21.35;48.72;94534.16;2617776;54;20447;-80
2022/07/04 22:20:15;;;;;;;1.95;1.85;;;;;;;21.25;48.34;94520.59;2617807;54;20676;-82
2022/07/04 22:22:43;;;;;;;2.13;2.03;;;;;;;21.02;47.53;94466.84;2616578;47;20173;-80
2022/07/04 22:25:12;;;;;;;1.92;1.83;;;;;;;21.66;47.03;94545.34;2617047;47;20165;-82
2022/07/04 22:27:42;;;;;;;2.00;1.90;;;;;;;22.35;49.29;94620.22;2617853;47;20169;-82
2022/07/04 22:30:11;;;;;;;1.73;1.65;;;;;;;21.93;46.60;94576.00;2618358;39;20562;-81
2022/07/04 22:32:40;;;;;;;1.80;1.75;;;;;;;21.72;46.66;94579.88;2617241;54;20188;-81
2022/07/04 22:35:11;;;;;;;2.78;2.10;;;;;;;21.74;46.32;94594.25;2617794;47;20161;-79
2022/07/04 22:37:42;;;;;;;2.03;1.70;;;;;;;21.75;46.68;94621.63;2617629;54;20141;-80
2022/07/04 22:40:11;;;;;;;1.50;1.50;;;;;;;21.81;47.12;94628.06;2617491;54;20218;-83
2022/07/04 22:42:40;;;;;;;1.50;1.40;;;;;;;21.93;46.12;94633.69;2617469;54;20160;-83
2022/07/04 22:45:10;;;;;;;1.40;1.40;;;;;;;21.57;45.30;94582.94;2617250;54;20187;-80
2022/07/04 22:47:39;;;;;;;1.92;1.75;;;;;;;21.85;45.99;94638.84;2617085;54;20256;-81
2022/07/04 22:50:09;;;;;;;1.48;1.38;;;;;;;22.00;46.29;94636.53;2617131;47;20177;-80
2022/07/04 22:52:38;;;;;;;2.00;1.80;;;;;;;21.50;45.20;94595.25;2617209;54;20141;-80
2022/07/04 22:55:09;;;;;;;1.23;1.20;;;;;;;21.59;45.71;94619.66;2618326;54;20156;-82
2022/07/04 22:57:40;;;;;;;1.38;1.38;;;;;;;21.72;46.26;94637.53;2617994;54;20526;-81
2022/07/04 23:00:12;;;;;;;2.60;1.70;;;;;;;21.51;45.67;94602.44;2617117;47;20184;-80
2022/07/04 23:02:41;;;;;;;1.50;1.40;;;;;;;21.96;52.64;94632.22;2617009;54;20169;-80
2022/07/04 23:05:13;;;;;;;1.77;1.67;;;;;;;21.55;48.09;94541.88;2617192;54;20161;-80
2022/07/04 23:07:42;;;;;;;1.70;1.60;;;;;;;22.36;52.12;94555.28;2617249;54;20157;-80
2022/07/04 23:10:14;;;;;;;1.48;1.48;;;;;;;23.29;51.94;94639.75;2616998;54;20692;-82
2022/07/04 23:12:44;;;;;;;2.13;1.48;;;;;;;23.07;49.80;94588.84;2616938;54;20144;-82
2022/07/04 23:15:13;;;;;;;1.77;1.65;;;;;;;23.64;49.92;94639.94;2617024;47;20161;-80
2022/07/04 23:17:42;;;;;;;1.40;1.40;;;;;;;23.58;50.26;94640.03;2617106;54;20160;-80
2022/07/04 23:20:11;;;;;;;3.40;1.63;;;;;;;23.62;48.76;94605.97;2616674;54;20161;-82
2022/07/04 23:22:40;;;;;;;1.45;1.35;;;;;;;23.41;50.68;94573.09;2617047;54;20661;-82
2022/07/04 23:25:10;;;;;;;1.60;1.50;;;;;;;23.24;46.65;94633.34;2616986;54;20152;-82
2022/07/04 23:27:41;;;;;;;1.58;1.48;;;;;;;21.91;49.10;94636.59;2616912;47;20248;-82
2022/07/04 23:30:11;;;;;;;1.85;1.75;;;;;;;21.92;51.62;94591.88;2617056;47;20718;-82
2022/07/04 23:32:39;;;;;;;2.08;1.98;;;;;;;22.19;49.27;94609.59;2616842;47;20192;-82
2022/07/04 23:35:09;;;;;;;1.70;1.63;;;;;;;22.32;53.50;94636.84;2616652;54;20180;-82
2022/07/04 23:37:39;;;;;;;2.25;2.15;;;;;;;22.24;50.50;94628.28;2616646;47;20165;-82
2022/07/04 23:40:09;;;;;;;6.00;2.08;;;;;;;22.33;50.21;94591.38;2617034;54;20165;-81
2022/07/04 23:42:38;;;;;;;2.25;2.15;;;;;;;22.21;52.98;94528.09;2617026;47;20668;-82
2022/07/04 23:45:11;;;;;;;1.98;1.88;;;;;;;22.23;50.68;94612.44;2617047;47;20161;-82
2022/07/04 23:47:40;;;;;;;2.78;2.58;;;;;;;21.77;53.33;94622.31;2616882;47;20161;-82
2022/07/04 23:50:10;;;;;;;4.82;2.00;;;;;;;21.25;53.38;94520.59;2617326;47;20169;-82
2022/07/04 23:52:39;;;;;;;2.72;2.53;;;;;;;22.20;53.08;94619.69;2617641;47;20172;-83
2022/07/04 23:55:09;;;;;;;5.13;2.40;;;;;;;22.49;55.69;94619.31;2617610;39;20648;-80
2022/07/04 23:57:38;;;;;;;1.88;1.77;;;;;;;22.40;54.10;94615.13;2616813;47;20270;-80
